createdAt,value
2023-03-11T00:02:35.101Z,8.52
2023-03-11T00:05:40.214Z,8.73
2023-03-11T00:08:42.401Z,8.55
2023-03-11T00:11:44.080Z,8.63
2023-03-11T00:14:45.772Z,8.45
2023-03-11T00:17:48.570Z,8.51
2023-03-11T00:20:50.217Z,8.52
2023-03-11T00:23:51.978Z,8.50
2023-03-11T00:26:53.769Z,8.37
2023-03-11T00:29:55.410Z,8.30
2023-03-11T00:32:58.516Z,8.28
2023-03-11T00:36:00.210Z,8.31
2023-03-11T00:39:06.691Z,8.24
2023-03-11T00:42:08.406Z,8.28
2023-03-11T00:45:10.524Z,8.22
2023-03-11T00:48:13.916Z,8.14
2023-03-11T00:51:16.362Z,8.07
2023-03-11T00:54:18.141Z,7.98
2023-03-11T00:57:19.772Z,7.98
2023-03-11T01:00:23.287Z,7.89
2023-03-11T01:03:24.950Z,7.93
2023-03-11T01:06:32.690Z,8.02
2023-03-11T01:09:40.992Z,8.02
2023-03-11T01:12:43.441Z,8.04
2023-03-11T01:15:45.166Z,7.98
2023-03-11T01:18:47.265Z,7.94
2023-03-11T01:21:48.907Z,7.87
2023-03-11T01:24:50.684Z,7.84
2023-03-11T01:27:52.491Z,7.80
2023-03-11T01:30:54.157Z,7.77
2023-03-11T01:33:55.815Z,7.70
2023-03-11T01:36:57.418Z,7.62
2023-03-11T01:39:59.042Z,7.56
2023-03-11T01:43:01.877Z,7.48
2023-03-11T01:46:09.622Z,7.42
2023-03-11T01:49:13.102Z,7.46
2023-03-11T01:52:14.775Z,7.35
2023-03-11T01:55:18.758Z,7.31
2023-03-11T01:58:34.311Z,7.26
2023-03-11T02:01:43.553Z,7.31
2023-03-11T02:04:46.540Z,7.29
2023-03-11T02:07:50.820Z,7.26
2023-03-11T02:10:54.233Z,7.07
2023-03-11T02:14:00.442Z,7.02
2023-03-11T02:17:02.182Z,6.93
2023-03-11T02:20:06.744Z,6.94
2023-03-11T02:23:08.794Z,7.12
2023-03-11T02:26:30.427Z,7.43
2023-03-11T02:29:33.334Z,7.41
2023-03-11T02:32:35.418Z,7.45
2023-03-11T02:35:37.244Z,7.32
2023-03-11T02:38:38.915Z,7.23
2023-03-11T02:41:45.947Z,7.29
2023-03-11T02:45:07.272Z,7.33
2023-03-11T02:48:11.851Z,7.19
2023-03-11T02:51:13.801Z,7.27
2023-03-11T02:54:15.577Z,7.43
2023-03-11T02:57:17.241Z,7.35
2023-03-11T03:00:19.312Z,7.36
2023-03-11T03:03:20.979Z,7.25
2023-03-11T03:06:22.883Z,7.12
2023-03-11T03:09:24.571Z,6.96
2023-03-11T03:12:26.255Z,6.93
2023-03-11T03:15:27.945Z,6.75
2023-03-11T03:18:29.791Z,6.75
2023-03-11T03:21:31.442Z,6.74
2023-03-11T03:24:33.133Z,6.64
2023-03-11T03:27:34.933Z,6.83
2023-03-11T03:30:36.604Z,6.90
2023-03-11T03:33:38.622Z,6.91
2023-03-11T03:36:40.385Z,6.91
2023-03-11T03:39:42.047Z,6.78
2023-03-11T03:42:43.671Z,6.77
2023-03-11T03:45:45.426Z,6.76
2023-03-11T03:48:47.409Z,6.86
2023-03-11T03:51:49.102Z,7.20
2023-03-11T03:54:50.769Z,7.22
2023-03-11T03:57:52.521Z,7.28
2023-03-11T04:00:58.791Z,7.21
2023-03-11T04:04:00.454Z,7.33
2023-03-11T04:07:05.666Z,7.43
2023-03-11T04:10:07.797Z,7.59
2023-03-11T04:13:09.485Z,7.56
2023-03-11T04:16:17.273Z,7.49
2023-03-11T04:19:18.991Z,7.60
2023-03-11T04:22:20.660Z,7.66
2023-03-11T04:25:22.315Z,7.70
2023-03-11T04:28:23.971Z,7.71
2023-03-11T04:31:25.674Z,7.63
2023-03-11T04:34:27.332Z,7.73
2023-03-11T04:37:29.560Z,7.70
2023-03-11T04:40:31.313Z,7.67
2023-03-11T04:43:34.050Z,7.69
2023-03-11T04:46:35.883Z,7.70
2023-03-11T04:49:37.787Z,7.60
2023-03-11T04:52:39.413Z,7.69
2023-03-11T04:55:41.573Z,7.71
2023-03-11T04:58:43.205Z,7.72
2023-03-11T05:01:44.870Z,7.76
2023-03-11T05:04:46.718Z,7.71
2023-03-11T05:07:49.248Z,7.77
2023-03-11T05:10:53.136Z,7.61
2023-03-11T05:13:54.806Z,7.43
2023-03-11T05:16:56.622Z,7.41
2023-03-11T05:19:58.247Z,7.27
2023-03-11T05:22:59.899Z,7.17
2023-03-11T05:26:01.566Z,7.20
2023-03-11T05:29:03.257Z,7.18
2023-03-11T05:32:05.428Z,7.08
2023-03-11T05:35:07.838Z,7.05
2023-03-11T05:38:09.471Z,6.95
2023-03-11T05:41:11.128Z,6.93
2023-03-11T05:44:12.755Z,6.89
2023-03-11T05:47:14.425Z,6.84
2023-03-11T05:50:16.071Z,6.81
2023-03-11T05:53:17.837Z,6.85
2023-03-11T05:56:22.348Z,6.77
2023-03-11T05:59:24.096Z,6.82
2023-03-11T06:02:25.885Z,6.81
2023-03-11T06:05:27.643Z,6.78
2023-03-11T06:08:30.819Z,6.79
2023-03-11T06:11:32.596Z,6.68
2023-03-11T06:14:34.475Z,6.58
2023-03-11T06:17:36.179Z,6.47
2023-03-11T06:20:38.022Z,6.31
2023-03-11T06:23:39.736Z,6.44
2023-03-11T06:26:41.485Z,6.37
2023-03-11T06:29:43.135Z,6.26
2023-03-11T06:32:46.528Z,6.21
2023-03-11T06:35:59.764Z,6.13
2023-03-11T06:39:01.459Z,6.07
2023-03-11T06:42:03.364Z,5.92
2023-03-11T06:45:05.437Z,5.86
2023-03-11T06:48:07.079Z,5.75
2023-03-11T06:51:10.379Z,5.79
2023-03-11T06:54:12.082Z,5.72
2023-03-11T06:57:13.741Z,5.66
2023-03-11T07:00:16.460Z,5.70
2023-03-11T07:03:18.216Z,5.83
2023-03-11T07:06:23.404Z,5.71
2023-03-11T07:09:25.957Z,5.66
2023-03-11T07:12:27.625Z,5.59
2023-03-11T07:15:29.435Z,5.56
2023-03-11T07:18:31.546Z,5.68
2023-03-11T07:21:33.262Z,5.85
2023-03-11T07:24:34.930Z,5.85
2023-03-11T07:27:36.609Z,5.64
2023-03-11T07:30:39.399Z,5.71
2023-03-11T07:33:41.101Z,5.59
2023-03-11T07:36:42.967Z,5.63
2023-03-11T07:39:44.681Z,5.60
2023-03-11T07:42:46.324Z,5.55
2023-03-11T07:45:48.060Z,5.67
2023-03-11T07:48:51.557Z,5.62
2023-03-11T07:51:53.186Z,5.88
2023-03-11T07:54:55.079Z,6.15
2023-03-11T07:57:56.892Z,6.20
2023-03-11T08:01:10.401Z,6.74
2023-03-11T08:04:14.326Z,7.93
2023-03-11T08:07:16.332Z,8.64
2023-03-11T08:10:18.093Z,8.07
2023-03-11T08:13:20.563Z,6.90
2023-03-11T08:16:22.732Z,5.95
2023-03-11T08:19:24.971Z,7.13
2023-03-11T08:22:26.653Z,8.30
2023-03-11T08:25:28.326Z,7.09
2023-03-11T08:28:30.005Z,6.17
2023-03-11T08:31:35.037Z,5.96
2023-03-11T08:34:39.520Z,6.03
2023-03-11T08:37:41.343Z,5.99
2023-03-11T08:40:43.036Z,5.95
2023-03-11T08:43:44.888Z,6.07
2023-03-11T08:46:46.754Z,6.30
2023-03-11T08:49:48.554Z,6.14
2023-03-11T08:52:50.264Z,6.16
2023-03-11T08:55:53.097Z,6.07
2023-03-11T08:58:54.759Z,6.24
2023-03-11T09:01:56.849Z,5.92
2023-03-11T09:04:58.608Z,6.00
2023-03-11T09:08:00.375Z,5.80
2023-03-11T09:11:02.263Z,5.83
2023-03-11T09:14:04.831Z,6.37
2023-03-11T09:17:07.210Z,6.20
2023-03-11T09:20:09.500Z,6.23
2023-03-11T09:23:14.310Z,6.06
2023-03-11T09:26:16.139Z,6.09
2023-03-11T09:29:17.793Z,5.89
2023-03-11T09:32:19.482Z,5.72
2023-03-11T09:35:21.156Z,7.46
2023-03-11T09:38:22.844Z,7.39
2023-03-11T09:41:57.101Z,8.89
2023-03-11T09:45:03.802Z,7.11
2023-03-11T09:48:31.774Z,6.95
2023-03-11T09:51:38.616Z,6.27
2023-03-11T09:54:45.280Z,6.00
2023-03-11T09:57:48.365Z,7.50
2023-03-11T10:00:52.141Z,6.82
2023-03-11T10:03:57.908Z,6.39
2023-03-11T10:07:02.281Z,7.25
2023-03-11T10:10:04.291Z,6.93
2023-03-11T10:13:55.320Z,6.64
2023-03-11T10:17:01.134Z,6.30
2023-03-11T10:20:24.349Z,6.53
2023-03-11T10:23:51.550Z,6.75
2023-03-11T10:27:00.173Z,6.83
2023-03-11T10:30:23.458Z,6.64
2023-03-11T10:33:35.649Z,6.53
2023-03-11T10:36:51.438Z,7.26
2023-03-11T10:39:53.504Z,8.05
2023-03-11T10:42:59.559Z,7.63
2023-03-11T10:46:07.630Z,7.71
2023-03-11T10:49:15.843Z,8.31
2023-03-11T10:52:17.585Z,8.01
2023-03-11T10:55:20.020Z,8.66
2023-03-11T10:58:24.264Z,7.45
2023-03-11T11:01:28.924Z,7.58
2023-03-11T11:04:41.150Z,7.53
2023-03-11T11:07:44.094Z,7.34
2023-03-11T11:10:55.172Z,7.22
2023-03-11T11:13:58.983Z,6.80
2023-03-11T11:17:00.830Z,6.31
2023-03-11T11:20:13.224Z,6.79
2023-03-11T11:23:26.959Z,6.91
2023-03-11T11:26:28.603Z,7.11
2023-03-11T11:29:30.324Z,6.83
2023-03-11T11:32:32.041Z,6.58
2023-03-11T11:35:34.393Z,6.49
2023-03-11T11:38:36.090Z,6.25
2023-03-11T11:41:38.135Z,6.06
2023-03-11T11:44:42.612Z,6.38
2023-03-11T11:47:48.616Z,5.99
2023-03-11T11:50:58.973Z,5.89
2023-03-11T11:54:24.333Z,5.82
2023-03-11T11:57:26.312Z,5.62
2023-03-11T12:00:44.008Z,5.61
2023-03-11T12:04:20.180Z,5.72
2023-03-11T12:07:37.563Z,5.77
2023-03-11T12:11:08.458Z,5.64
2023-03-11T12:14:26.877Z,5.68
2023-03-11T12:17:30.580Z,5.65
2023-03-11T12:20:42.559Z,5.63
2023-03-11T12:24:00.511Z,5.77
2023-03-11T12:27:23.124Z,5.77
2023-03-11T12:30:33.063Z,5.79
2023-03-11T12:33:39.777Z,5.88
2023-03-11T12:36:44.011Z,5.70
2023-03-11T12:39:45.825Z,5.59
2023-03-11T12:42:47.478Z,5.53
2023-03-11T12:45:55.749Z,5.68
2023-03-11T12:49:14.185Z,5.88
2023-03-11T12:52:22.996Z,5.94
2023-03-11T12:55:30.180Z,6.20
2023-03-11T12:58:43.508Z,6.08
2023-03-11T13:01:58.172Z,6.38
2023-03-11T13:05:14.454Z,7.17
2023-03-11T13:08:16.922Z,7.41
2023-03-11T13:11:33.939Z,7.38
2023-03-11T13:14:36.177Z,7.23
2023-03-11T13:17:37.948Z,6.67
2023-03-11T13:20:41.526Z,6.32
2023-03-11T13:23:43.355Z,6.32
2023-03-11T13:27:11.007Z,6.59
2023-03-11T13:30:22.391Z,6.52
2023-03-11T13:33:46.465Z,7.30
2023-03-11T13:37:00.453Z,8.30
2023-03-11T13:40:31.998Z,9.13
2023-03-11T13:43:35.405Z,10.91
2023-03-11T13:46:40.383Z,11.49
2023-03-11T13:50:14.713Z,11.32
2023-03-11T13:53:40.056Z,11.20
2023-03-11T13:56:49.540Z,10.59
2023-03-11T13:59:56.214Z,10.42
2023-03-11T14:03:02.257Z,10.26
2023-03-11T14:06:09.013Z,10.54
2023-03-11T14:09:19.794Z,10.83
2023-03-11T14:12:21.561Z,10.69
2023-03-11T14:15:26.888Z,10.88
2023-03-11T14:18:35.845Z,10.55
2023-03-11T14:21:42.938Z,9.57
2023-03-11T14:24:48.367Z,8.24
2023-03-11T14:27:57.021Z,8.08
2023-03-11T14:31:01.249Z,7.22
2023-03-11T14:34:18.325Z,6.60
2023-03-11T14:37:38.154Z,6.68
2023-03-11T14:40:42.329Z,6.52
2023-03-11T14:43:52.779Z,6.58
2023-03-11T14:47:05.898Z,6.72
2023-03-11T14:50:19.550Z,6.29
2023-03-11T14:53:43.230Z,6.14
2023-03-11T14:56:51.798Z,5.92
2023-03-11T14:59:55.854Z,5.85
2023-03-11T15:03:31.708Z,5.92
2023-03-11T15:06:36.038Z,6.00
2023-03-11T15:09:40.692Z,6.14
2023-03-11T15:12:45.662Z,6.12
2023-03-11T15:15:59.865Z,5.97
2023-03-11T15:19:24.697Z,5.84
2023-03-11T15:22:32.995Z,5.66
2023-03-11T15:25:39.052Z,5.80
2023-03-11T15:28:41.250Z,5.72
2023-03-11T15:31:46.961Z,5.69
2023-03-11T15:35:00.227Z,5.62
2023-03-11T15:38:13.926Z,5.68
2023-03-11T15:41:15.860Z,5.79
2023-03-11T15:44:50.008Z,5.66
2023-03-11T15:47:51.863Z,5.28
2023-03-11T15:50:56.865Z,5.17
2023-03-11T15:53:58.821Z,5.15
2023-03-11T15:57:01.470Z,5.09
2023-03-11T16:00:05.469Z,4.95
2023-03-11T16:03:07.829Z,4.90
2023-03-11T16:06:09.736Z,4.79
2023-03-11T16:09:12.909Z,4.72
2023-03-11T16:12:18.630Z,4.67
2023-03-11T16:15:30.703Z,4.63
2023-03-11T16:18:33.839Z,4.55
2023-03-11T16:21:43.390Z,4.55
2023-03-11T16:24:48.314Z,4.48
2023-03-11T16:27:52.057Z,4.36
2023-03-11T16:30:53.968Z,4.31
2023-03-11T16:33:58.229Z,4.16
2023-03-11T16:37:00.319Z,4.09
2023-03-11T16:40:02.891Z,4.08
2023-03-11T16:43:10.848Z,3.99
2023-03-11T16:46:13.245Z,3.95
2023-03-11T16:49:15.485Z,3.87
2023-03-11T16:52:20.997Z,3.83
2023-03-11T16:55:27.294Z,3.77
2023-03-11T16:58:29.759Z,3.71
2023-03-11T17:01:32.176Z,3.70
2023-03-11T17:04:34.135Z,3.59
2023-03-11T17:07:39.429Z,3.61
2023-03-11T17:10:44.296Z,3.53
2023-03-11T17:13:46.607Z,3.51
2023-03-11T17:16:49.679Z,3.53
2023-03-11T17:19:51.571Z,3.48
2023-03-11T17:22:53.925Z,3.51
2023-03-11T17:25:56.018Z,3.48
2023-03-11T17:28:58.115Z,3.47
2023-03-11T17:32:01.421Z,3.44
2023-03-11T17:35:04.146Z,3.40
2023-03-11T17:38:06.376Z,3.24
2023-03-11T17:41:09.776Z,3.32
2023-03-11T17:44:13.768Z,3.30
2023-03-11T17:47:21.865Z,3.20
2023-03-11T17:50:26.682Z,3.21
2023-03-11T17:53:28.485Z,3.21
2023-03-11T17:56:31.084Z,3.22
2023-03-11T17:59:33.820Z,3.15
2023-03-11T18:02:54.613Z,3.15
2023-03-11T18:06:08.600Z,3.18
2023-03-11T18:09:11.228Z,3.13
2023-03-11T18:12:13.401Z,3.11
2023-03-11T18:15:20.764Z,3.11
2023-03-11T18:18:23.222Z,3.06
2023-03-11T18:21:31.349Z,3.06
2023-03-11T18:24:33.721Z,3.09
2023-03-11T18:27:38.349Z,3.06
2023-03-11T18:30:40.956Z,3.06
2023-03-11T18:33:48.577Z,2.99
2023-03-11T18:36:50.539Z,2.95
2023-03-11T18:39:53.731Z,2.96
2023-03-11T18:42:56.226Z,2.88
2023-03-11T18:46:01.527Z,2.93
2023-03-11T18:49:05.637Z,2.93
2023-03-11T18:52:07.651Z,2.94
2023-03-11T18:55:10.048Z,2.91
2023-03-11T18:58:15.196Z,2.89
2023-03-11T19:01:21.873Z,2.86
2023-03-11T19:04:24.574Z,2.85
2023-03-11T19:07:29.849Z,2.79
2023-03-11T19:10:33.644Z,2.88
2023-03-11T19:13:46.559Z,2.82
2023-03-11T19:16:51.006Z,2.84
2023-03-11T19:19:53.591Z,2.81
2023-03-11T19:22:55.793Z,2.76
2023-03-11T19:26:03.675Z,2.76
2023-03-11T19:29:06.141Z,2.74
2023-03-11T19:32:08.252Z,2.72
2023-03-11T19:35:14.974Z,2.73
2023-03-11T19:38:17.197Z,2.70
2023-03-11T19:41:20.799Z,2.69
2023-03-11T19:44:23.607Z,2.70
2023-03-11T19:47:26.574Z,2.65
2023-03-11T19:50:29.228Z,2.66
2023-03-11T19:53:31.898Z,2.59
2023-03-11T19:56:34.608Z,2.66
2023-03-11T19:59:37.214Z,2.62
2023-03-11T20:02:39.793Z,2.54
2023-03-11T20:05:47.460Z,2.55
2023-03-11T20:08:50.556Z,2.44
2023-03-11T20:11:52.428Z,2.32
2023-03-11T20:14:54.597Z,2.39
2023-03-11T20:17:57.239Z,2.29
2023-03-11T20:21:03.560Z,2.22
2023-03-11T20:24:11.416Z,2.13
2023-03-11T20:27:14.342Z,2.12
2023-03-11T20:30:20.178Z,2.06
2023-03-11T20:33:22.666Z,1.99
2023-03-11T20:36:28.036Z,1.96
2023-03-11T20:39:30.676Z,1.89
2023-03-11T20:42:33.421Z,1.87
2023-03-11T20:45:37.613Z,1.86
2023-03-11T20:48:42.627Z,1.90
2023-03-11T20:51:48.434Z,1.86
2023-03-11T20:54:51.361Z,1.81
2023-03-11T20:57:54.595Z,1.81
2023-03-11T21:00:57.310Z,1.77
2023-03-11T21:04:02.488Z,1.70
2023-03-11T21:07:05.681Z,1.67
2023-03-11T21:10:11.325Z,1.67
2023-03-11T21:13:13.505Z,1.63
2023-03-11T21:16:17.242Z,1.56
2023-03-11T21:19:22.569Z,1.58
2023-03-11T21:22:25.684Z,1.54
2023-03-11T21:25:28.723Z,1.51
2023-03-11T21:28:31.329Z,1.46
2023-03-11T21:31:34.197Z,1.48
2023-03-11T21:34:36.136Z,1.43
2023-03-11T21:37:39.685Z,1.39
2023-03-11T21:40:41.628Z,1.32
2023-03-11T21:43:44.144Z,1.38
2023-03-11T21:46:46.212Z,1.33
2023-03-11T21:49:48.154Z,1.31
2023-03-11T21:52:49.874Z,1.33
2023-03-11T21:55:53.068Z,1.25
2023-03-11T21:58:54.892Z,1.15
2023-03-11T22:02:01.364Z,1.15
2023-03-11T22:05:03.326Z,1.14
2023-03-11T22:08:05.240Z,1.17
2023-03-11T22:11:09.515Z,1.09
2023-03-11T22:14:11.507Z,1.04
2023-03-11T22:17:13.330Z,1.03
2023-03-11T22:20:15.986Z,1.00
2023-03-11T22:23:17.676Z,1.00
2023-03-11T22:26:19.400Z,0.91
2023-03-11T22:29:21.080Z,0.95
2023-03-11T22:32:22.863Z,0.88
2023-03-11T22:35:24.615Z,0.80
2023-03-11T22:38:26.243Z,0.76
2023-03-11T22:41:28.012Z,0.68
2023-03-11T22:44:29.684Z,0.69
2023-03-11T22:47:31.726Z,0.63
2023-03-11T22:50:33.390Z,0.61
2023-03-11T22:53:35.106Z,0.48
2023-03-11T22:56:36.809Z,0.39
2023-03-11T22:59:38.536Z,0.36
2023-03-11T23:02:40.186Z,0.39
2023-03-11T23:05:42.377Z,0.41
2023-03-11T23:08:44.639Z,0.41
2023-03-11T23:11:46.315Z,0.43
2023-03-11T23:14:47.959Z,0.69
2023-03-11T23:17:49.746Z,0.72
2023-03-11T23:20:51.977Z,0.57
2023-03-11T23:23:54.546Z,0.36
2023-03-11T23:26:56.280Z,0.23
2023-03-11T23:29:58.370Z,0.26
2023-03-11T23:33:02.904Z,0.19
2023-03-11T23:36:08.489Z,0.03
2023-03-11T23:39:10.144Z,-0.12
2023-03-11T23:42:24.551Z,-0.09
2023-03-11T23:45:27.481Z,-0.06
2023-03-11T23:48:29.269Z,-0.06
2023-03-11T23:51:31.012Z,-0.16
2023-03-11T23:54:32.685Z,-0.15
2023-03-11T23:57:37.859Z,-0.15
